createdAt,value
2019-06-26T00:01:11.450Z,100.00
2019-06-26T00:04:14.574Z,100.00
2019-06-26T00:07:17.579Z,100.00
2019-06-26T00:10:20.764Z,100.00
2019-06-26T00:13:27.071Z,100.00
2019-06-26T00:16:30.291Z,100.00
2019-06-26T00:19:33.306Z,100.00
2019-06-26T00:22:36.340Z,100.00
2019-06-26T00:25:39.709Z,100.00
2019-06-26T00:28:42.704Z,100.00
2019-06-26T00:31:46.052Z,100.00
2019-06-26T00:34:49.423Z,100.00
2019-06-26T00:37:52.439Z,100.00
2019-06-26T00:40:56.133Z,100.00
2019-06-26T00:43:59.121Z,100.00
2019-06-26T00:47:02.544Z,100.00
2019-06-26T00:50:07.653Z,100.00
2019-06-26T00:53:11.103Z,100.00
2019-06-26T00:56:14.555Z,100.00
2019-06-26T00:59:17.514Z,100.00
2019-06-26T01:02:21.560Z,100.00
2019-06-26T01:05:24.542Z,100.00
2019-06-26T01:08:28.185Z,100.00
2019-06-26T01:11:31.204Z,100.00
2019-06-26T01:14:34.534Z,100.00
2019-06-26T01:17:38.008Z,100.00
2019-06-26T01:20:41.124Z,100.00
2019-06-26T01:23:44.123Z,100.00
2019-06-26T01:26:47.149Z,100.00
2019-06-26T01:29:50.247Z,100.00
2019-06-26T01:32:53.217Z,100.00
2019-06-26T01:35:56.211Z,100.00
2019-06-26T01:38:59.554Z,100.00
2019-06-26T01:42:10.702Z,100.00
2019-06-26T01:45:28.213Z,100.00
2019-06-26T01:48:37.928Z,100.00
2019-06-26T01:52:21.747Z,100.00
2019-06-26T01:56:30.631Z,100.00
2019-06-26T02:04:41.048Z,100.00
2019-06-26T02:10:06.756Z,100.00
2019-06-26T02:18:04.645Z,100.00
2019-06-26T02:22:30.598Z,100.00
2019-06-26T02:26:34.865Z,100.00
2019-06-26T02:31:05.316Z,100.00
2019-06-26T03:02:15.939Z,100.00
2019-06-26T03:13:49.813Z,100.00
2019-06-26T03:17:22.052Z,100.00
2019-06-26T03:25:01.242Z,100.00
2019-06-26T03:29:42.007Z,100.00
2019-06-26T03:32:54.914Z,100.00
2019-06-26T03:36:32.378Z,100.00
2019-06-26T03:40:51.249Z,100.00
2019-06-26T03:44:43.269Z,100.00
2019-06-26T03:48:44.989Z,100.00
2019-06-26T03:52:08.703Z,100.00
2019-06-26T03:59:36.131Z,100.00
2019-06-26T04:00:17.222Z,100.00
2019-06-26T04:04:14.571Z,100.00
2019-06-26T04:08:22.999Z,100.00
2019-06-26T04:11:52.702Z,100.00
2019-06-26T04:16:08.324Z,100.00
2019-06-26T04:20:04.734Z,100.00
2019-06-26T04:23:43.649Z,100.00
2019-06-26T04:27:23.334Z,100.00
2019-06-26T04:35:02.185Z,100.00
2019-06-26T04:38:20.053Z,100.00
2019-06-26T04:42:20.569Z,100.00
2019-06-26T04:45:58.309Z,100.00
2019-06-26T04:59:03.906Z,100.00
2019-06-26T05:02:55.098Z,100.00
2019-06-26T05:06:42.212Z,100.00
2019-06-26T05:10:16.018Z,100.00
2019-06-26T05:18:30.345Z,100.00
2019-06-26T05:22:22.632Z,100.00
2019-06-26T05:26:39.511Z,100.00
2019-06-26T05:30:25.574Z,100.00
2019-06-26T05:42:49.770Z,100.00
2019-06-26T05:46:44.226Z,100.00
2019-06-26T05:49:47.678Z,100.00
2019-06-26T05:52:50.625Z,100.00
2019-06-26T05:55:53.611Z,100.00
2019-06-26T05:58:56.551Z,100.00
2019-06-26T06:01:59.521Z,100.00
2019-06-26T06:05:05.566Z,100.00
2019-06-26T06:08:10.098Z,100.00
2019-06-26T06:11:16.446Z,100.00
2019-06-26T06:14:20.369Z,100.00
2019-06-26T06:17:26.071Z,100.00
2019-06-26T06:20:38.976Z,100.00
2019-06-26T06:23:42.772Z,100.00
2019-06-26T06:26:46.904Z,100.00
2019-06-26T06:29:51.127Z,100.00
2019-06-26T06:32:54.925Z,100.00
2019-06-26T06:35:58.147Z,100.00
2019-06-26T06:39:08.623Z,100.00
2019-06-26T06:42:42.833Z,100.00
2019-06-26T06:46:31.509Z,100.00
2019-06-26T06:49:38.608Z,100.00
2019-06-26T06:57:51.402Z,100.00
2019-06-26T07:01:18.111Z,100.00
2019-06-26T07:04:21.713Z,100.00
2019-06-26T07:07:24.636Z,100.00
2019-06-26T07:10:46.906Z,100.00
2019-06-26T07:15:02.097Z,100.00
2019-06-26T07:18:08.073Z,100.00
2019-06-26T07:21:20.068Z,100.00
2019-06-26T07:24:23.285Z,100.00
2019-06-26T07:27:26.218Z,100.00
2019-06-26T07:30:29.182Z,100.00
2019-06-26T07:33:32.483Z,100.00
2019-06-26T07:36:36.086Z,100.00
2019-06-26T07:39:39.102Z,100.00
2019-06-26T07:42:42.045Z,100.00
2019-06-26T07:45:45.015Z,100.00
2019-06-26T07:48:47.949Z,100.00
2019-06-26T07:51:51.182Z,100.00
2019-06-26T07:54:54.114Z,100.00
2019-06-26T07:57:57.561Z,100.00
2019-06-26T08:01:00.818Z,100.00
2019-06-26T08:04:03.779Z,100.00
2019-06-26T08:07:07.707Z,100.00
2019-06-26T08:10:11.295Z,100.00
2019-06-26T08:13:14.227Z,100.00
2019-06-26T08:16:17.190Z,100.00
2019-06-26T08:19:20.424Z,100.00
2019-06-26T08:22:23.700Z,100.00
2019-06-26T08:25:27.735Z,100.00
2019-06-26T08:28:31.298Z,100.00
2019-06-26T08:31:34.247Z,100.00
2019-06-26T08:34:37.195Z,100.00
2019-06-26T08:37:40.423Z,100.00
2019-06-26T08:40:43.569Z,100.00
2019-06-26T08:43:46.523Z,100.00
2019-06-26T08:46:49.822Z,100.00
2019-06-26T08:49:52.771Z,100.00
2019-06-26T08:52:55.725Z,100.00
2019-06-26T08:55:58.680Z,100.00
2019-06-26T08:59:02.896Z,100.00
2019-06-26T09:02:06.087Z,100.00
2019-06-26T09:05:09.436Z,100.00
2019-06-26T09:08:12.441Z,100.00
2019-06-26T09:11:17.150Z,100.00
2019-06-26T09:14:20.347Z,100.00
2019-06-26T09:17:23.350Z,100.00
2019-06-26T09:20:37.563Z,100.00
2019-06-26T09:23:40.541Z,100.00
2019-06-26T09:26:43.921Z,100.00
2019-06-26T09:29:46.927Z,96.94
2019-06-26T09:32:49.971Z,100.00
2019-06-26T09:35:52.974Z,100.00
2019-06-26T09:38:57.994Z,100.00
2019-06-26T09:42:00.972Z,100.00
2019-06-26T09:45:04.705Z,97.84
2019-06-26T09:48:07.800Z,100.00
2019-06-26T09:51:11.227Z,96.24
2019-06-26T09:54:14.481Z,97.70
2019-06-26T09:57:18.397Z,100.00
2019-06-26T10:00:22.363Z,98.59
2019-06-26T10:03:25.385Z,98.46
2019-06-26T10:06:28.498Z,90.36
2019-06-26T10:09:31.626Z,90.32
2019-06-26T10:12:34.662Z,87.38
2019-06-26T10:15:37.973Z,80.17
2019-06-26T10:18:40.928Z,80.53
2019-06-26T10:21:44.408Z,85.03
2019-06-26T10:24:47.456Z,84.61
2019-06-26T10:27:50.426Z,85.72
2019-06-26T10:30:54.246Z,80.07
2019-06-26T10:33:57.704Z,80.40
2019-06-26T10:37:01.259Z,81.78
2019-06-26T10:40:05.744Z,83.77
2019-06-26T10:43:09.976Z,75.63
2019-06-26T10:46:14.080Z,79.76
2019-06-26T10:49:27.117Z,88.41
2019-06-26T10:52:22.646Z,90.80
2019-06-26T10:55:25.722Z,86.72
2019-06-26T10:58:28.759Z,83.46
2019-06-26T11:01:32.106Z,83.36
2019-06-26T11:04:35.140Z,81.49
2019-06-26T11:07:38.303Z,80.25
2019-06-26T11:10:41.341Z,80.24
2019-06-26T11:13:45.050Z,78.98
2019-06-26T11:16:48.248Z,82.85
2019-06-26T11:19:55.322Z,83.16
2019-06-26T11:22:57.906Z,84.45
2019-06-26T11:26:01.731Z,81.46
2019-06-26T11:29:04.648Z,82.98
2019-06-26T11:32:09.578Z,72.41
2019-06-26T11:35:13.548Z,79.21
2019-06-26T11:38:16.506Z,81.38
2019-06-26T11:41:19.737Z,75.59
2019-06-26T11:44:24.116Z,75.36
2019-06-26T11:47:27.201Z,75.65
2019-06-26T11:50:30.543Z,77.63
2019-06-26T11:53:33.527Z,74.75
2019-06-26T11:56:36.908Z,76.13
2019-06-26T11:59:39.827Z,76.74
2019-06-26T12:02:42.834Z,72.79
2019-06-26T12:05:47.216Z,72.99
2019-06-26T12:08:50.168Z,73.34
2019-06-26T12:11:53.702Z,71.52
2019-06-26T12:14:56.945Z,76.38
2019-06-26T12:18:00.257Z,73.68
2019-06-26T12:21:03.212Z,76.25
2019-06-26T12:24:06.301Z,75.36
2019-06-26T12:27:09.305Z,76.47
2019-06-26T12:30:12.523Z,76.56
2019-06-26T12:33:15.979Z,78.76
2019-06-26T12:36:18.953Z,71.92
2019-06-26T12:39:21.926Z,73.39
2019-06-26T12:42:25.801Z,79.70
2019-06-26T12:45:28.808Z,79.73
2019-06-26T12:48:31.997Z,79.88
2019-06-26T12:51:34.956Z,78.39
2019-06-26T12:54:38.076Z,79.04
2019-06-26T12:57:41.070Z,80.50
2019-06-26T13:00:45.232Z,77.90
2019-06-26T13:03:48.311Z,78.99
2019-06-26T13:06:51.333Z,77.33
2019-06-26T13:09:54.748Z,74.36
2019-06-26T13:12:57.768Z,73.32
2019-06-26T13:16:00.937Z,75.14
2019-06-26T13:19:04.241Z,74.03
2019-06-26T13:22:07.396Z,70.41
2019-06-26T13:25:10.807Z,74.06
2019-06-26T13:28:13.905Z,73.18
2019-06-26T13:31:16.877Z,73.44
2019-06-26T13:34:20.157Z,74.26
2019-06-26T13:37:23.123Z,77.06
2019-06-26T13:40:26.330Z,76.26
2019-06-26T13:43:29.297Z,76.85
2019-06-26T13:46:32.532Z,75.46
2019-06-26T13:49:35.527Z,75.18
2019-06-26T13:52:38.797Z,74.75
2019-06-26T13:55:42.395Z,72.10
2019-06-26T13:58:45.386Z,73.76
2019-06-26T14:01:48.407Z,76.58
2019-06-26T14:04:51.352Z,79.39
2019-06-26T14:07:54.318Z,80.18
2019-06-26T14:10:57.254Z,80.88
2019-06-26T14:14:00.243Z,80.81
2019-06-26T14:17:03.291Z,80.57
2019-06-26T14:20:08.733Z,78.08
2019-06-26T14:23:11.678Z,77.32
2019-06-26T14:26:14.614Z,76.44
2019-06-26T14:29:21.246Z,75.15
2019-06-26T14:32:22.417Z,77.08
2019-06-26T14:35:25.360Z,76.39
2019-06-26T14:38:28.301Z,77.40
2019-06-26T14:41:31.228Z,77.43
2019-06-26T14:44:34.190Z,78.75
2019-06-26T14:47:37.120Z,78.60
2019-06-26T14:50:40.512Z,74.35
2019-06-26T14:53:43.555Z,79.54
2019-06-26T14:56:46.842Z,81.73
2019-06-26T14:59:49.799Z,79.88
2019-06-26T15:02:53.132Z,82.38
2019-06-26T15:05:56.146Z,81.89
2019-06-26T15:08:59.444Z,83.31
2019-06-26T15:12:02.358Z,82.38
2019-06-26T15:15:05.853Z,83.48
2019-06-26T15:18:10.796Z,87.18
2019-06-26T15:21:14.047Z,86.25
2019-06-26T15:24:17.355Z,87.77
2019-06-26T15:27:20.358Z,85.43
2019-06-26T15:30:23.605Z,87.52
2019-06-26T15:33:26.569Z,86.78
2019-06-26T15:36:30.557Z,87.50
2019-06-26T15:39:34.716Z,85.86
2019-06-26T15:42:38.520Z,84.31
2019-06-26T15:45:41.924Z,85.44
2019-06-26T15:48:44.877Z,86.49
2019-06-26T15:51:48.153Z,88.56
2019-06-26T15:54:51.433Z,85.25
2019-06-26T15:57:54.386Z,82.67
2019-06-26T16:00:57.349Z,87.41
2019-06-26T16:04:00.985Z,86.72
2019-06-26T16:07:04.250Z,87.40
2019-06-26T16:10:08.197Z,86.99
2019-06-26T16:13:11.372Z,89.73
2019-06-26T16:16:15.019Z,90.21
2019-06-26T16:19:19.524Z,89.33
2019-06-26T16:22:32.125Z,90.82
2019-06-26T16:25:27.665Z,87.57
2019-06-26T16:28:30.615Z,89.71
2019-06-26T16:31:34.025Z,86.94
2019-06-26T16:34:37.370Z,88.70
2019-06-26T16:37:41.364Z,89.31
2019-06-26T16:40:44.329Z,89.91
2019-06-26T16:43:47.582Z,86.18
2019-06-26T16:46:50.559Z,90.37
2019-06-26T16:49:53.586Z,83.12
2019-06-26T16:52:56.526Z,89.35
2019-06-26T16:55:59.474Z,85.85
2019-06-26T16:59:02.415Z,85.84
2019-06-26T17:02:07.130Z,89.69
2019-06-26T17:05:10.736Z,85.43
2019-06-26T17:08:13.713Z,84.82
2019-06-26T17:11:16.672Z,84.34
2019-06-26T17:14:19.811Z,89.18
2019-06-26T17:17:23.092Z,85.90
2019-06-26T17:20:26.059Z,86.42
2019-06-26T17:23:40.555Z,92.16
2019-06-26T17:26:44.690Z,97.06
2019-06-26T17:29:54.225Z,92.67
2019-06-26T17:33:19.477Z,93.70
2019-06-26T17:36:23.166Z,93.66
2019-06-26T17:39:33.098Z,95.51
2019-06-26T17:43:12.950Z,91.66
2019-06-26T17:47:26.216Z,92.65
2019-06-26T17:50:35.765Z,93.62
2019-06-26T17:53:41.840Z,93.35
2019-06-26T17:56:54.132Z,89.71
2019-06-26T17:59:58.943Z,95.29
2019-06-26T18:03:06.649Z,89.58
2019-06-26T18:06:10.164Z,90.39
2019-06-26T18:09:16.293Z,90.91
2019-06-26T18:12:22.070Z,88.00
2019-06-26T18:15:30.326Z,89.97
2019-06-26T18:18:34.355Z,89.20
2019-06-26T18:21:38.043Z,87.29
2019-06-26T18:24:42.126Z,85.96
2019-06-26T18:27:45.684Z,84.81
2019-06-26T18:30:49.157Z,87.02
2019-06-26T18:33:52.432Z,90.01
2019-06-26T18:36:56.015Z,86.64
2019-06-26T18:39:59.360Z,84.69
2019-06-26T18:43:02.538Z,84.32
2019-06-26T18:46:06.446Z,85.50
2019-06-26T18:49:09.684Z,85.51
2019-06-26T18:52:14.299Z,87.43
2019-06-26T18:55:17.382Z,86.39
2019-06-26T18:58:20.727Z,81.02
2019-06-26T19:01:23.937Z,85.87
2019-06-26T19:04:27.382Z,86.49
2019-06-26T19:07:30.746Z,85.08
2019-06-26T19:10:33.809Z,82.04
2019-06-26T19:13:37.273Z,82.83
2019-06-26T19:16:40.475Z,83.45
2019-06-26T19:19:43.457Z,82.00
2019-06-26T19:22:49.066Z,83.75
2019-06-26T19:25:57.103Z,83.28
2019-06-26T19:29:00.452Z,84.08
2019-06-26T19:32:03.508Z,85.59
2019-06-26T19:35:18.074Z,83.97
2019-06-26T19:38:12.644Z,85.10
2019-06-26T19:41:16.132Z,86.78
2019-06-26T19:44:19.103Z,85.01
2019-06-26T19:47:22.397Z,85.05
2019-06-26T19:50:25.470Z,85.16
2019-06-26T19:53:28.793Z,85.93
2019-06-26T19:56:33.308Z,87.23
2019-06-26T19:59:36.968Z,86.73
2019-06-26T20:02:39.993Z,86.81
2019-06-26T20:05:43.333Z,84.66
2019-06-26T20:08:53.358Z,85.42
2019-06-26T20:11:51.834Z,86.03
2019-06-26T20:14:54.804Z,86.14
2019-06-26T20:17:57.788Z,87.42
2019-06-26T20:21:00.729Z,87.87
2019-06-26T20:24:04.165Z,88.62
2019-06-26T20:27:07.126Z,82.98
2019-06-26T20:30:11.041Z,79.27
2019-06-26T20:33:14.005Z,79.90
2019-06-26T20:36:17.605Z,77.92
2019-06-26T20:39:20.903Z,80.19
2019-06-26T20:42:23.865Z,79.47
2019-06-26T20:45:27.217Z,77.65
2019-06-26T20:48:31.083Z,77.21
2019-06-26T20:51:34.325Z,75.64
2019-06-26T20:54:37.445Z,78.49
2019-06-26T20:57:40.416Z,78.64
2019-06-26T21:00:43.951Z,75.84
2019-06-26T21:03:47.235Z,77.54
2019-06-26T21:06:50.190Z,76.21
2019-06-26T21:09:53.633Z,78.21
2019-06-26T21:12:56.607Z,76.27
2019-06-26T21:16:04.221Z,78.46
2019-06-26T21:19:07.241Z,79.38
2019-06-26T21:22:10.597Z,77.56
2019-06-26T21:25:18.884Z,80.81
2019-06-26T21:28:18.457Z,78.06
2019-06-26T21:31:21.429Z,78.22
2019-06-26T21:34:24.944Z,78.41
2019-06-26T21:37:28.731Z,79.00
2019-06-26T21:40:31.673Z,79.03
2019-06-26T21:43:34.631Z,77.87
2019-06-26T21:46:37.721Z,79.90
2019-06-26T21:49:40.690Z,80.14
2019-06-26T21:52:44.023Z,79.81
2019-06-26T21:55:49.180Z,81.80
2019-06-26T21:59:11.637Z,85.19
2019-06-26T22:02:33.396Z,80.89
2019-06-26T22:05:38.264Z,80.74
2019-06-26T22:08:46.003Z,82.16
2019-06-26T22:11:50.966Z,84.86
2019-06-26T22:14:55.401Z,79.44
2019-06-26T22:17:58.656Z,85.78
2019-06-26T22:21:02.239Z,84.59
2019-06-26T22:24:05.368Z,85.31
2019-06-26T22:27:08.414Z,85.43
2019-06-26T22:30:12.041Z,85.17
2019-06-26T22:33:15.346Z,83.78
2019-06-26T22:36:18.663Z,85.93
2019-06-26T22:39:22.332Z,85.19
2019-06-26T22:42:25.647Z,84.12
2019-06-26T22:45:29.071Z,86.11
2019-06-26T22:48:32.020Z,87.71
2019-06-26T22:51:35.581Z,87.57
2019-06-26T22:54:38.876Z,85.34
2019-06-26T22:57:42.645Z,84.86
2019-06-26T23:00:47.845Z,84.22
2019-06-26T23:03:51.375Z,83.08
2019-06-26T23:06:55.582Z,85.29
2019-06-26T23:09:58.495Z,84.98
2019-06-26T23:13:01.779Z,85.50
2019-06-26T23:16:04.869Z,80.36
2019-06-26T23:19:08.173Z,83.33
2019-06-26T23:22:11.494Z,81.88
2019-06-26T23:25:14.476Z,81.49
2019-06-26T23:28:17.801Z,79.40
2019-06-26T23:31:20.764Z,81.25
2019-06-26T23:34:23.696Z,80.38
2019-06-26T23:37:27.088Z,82.24
2019-06-26T23:40:30.576Z,81.45
2019-06-26T23:43:33.530Z,81.57
2019-06-26T23:46:36.833Z,82.65
2019-06-26T23:49:39.778Z,81.67
2019-06-26T23:52:42.742Z,82.06
2019-06-26T23:55:45.714Z,80.50
2019-06-26T23:58:48.689Z,81.85
